sensor_id;sensor_type;location;lat;lon;timestamp;temperature;humidity
32293;DHT22;43233;48.608;8.838;2022-11-03T00:03:58;6.70;94.30
32293;DHT22;43233;48.608;8.838;2022-11-03T00:06:24;6.60;95.30
32293;DHT22;43233;48.608;8.838;2022-11-03T00:08:49;6.70;95.80
32293;DHT22;43233;48.608;8.838;2022-11-03T00:11:15;6.70;94.00
32293;DHT22;43233;48.608;8.838;2022-11-03T00:13:42;6.80;95.20
32293;DHT22;43233;48.608;8.838;2022-11-03T00:16:11;6.80;89.20
32293;DHT22;43233;48.608;8.838;2022-11-03T00:18:37;6.90;89.20
32293;DHT22;43233;48.608;8.838;2022-11-03T00:21:06;6.90;88.60
32293;DHT22;43233;48.608;8.838;2022-11-03T00:23:34;6.80;87.80
32293;DHT22;43233;48.608;8.838;2022-11-03T00:26:17;6.70;94.90
32293;DHT22;43233;48.608;8.838;2022-11-03T00:28:44;6.60;95.70
32293;DHT22;43233;48.608;8.838;2022-11-03T00:31:20;6.60;96.30
32293;DHT22;43233;48.608;8.838;2022-11-03T00:33:46;6.60;96.00
32293;DHT22;43233;48.608;8.838;2022-11-03T00:36:14;6.70;98.60
32293;DHT22;43233;48.608;8.838;2022-11-03T00:38:42;6.60;99.90
32293;DHT22;43233;48.608;8.838;2022-11-03T00:41:09;6.60;92.00
32293;DHT22;43233;48.608;8.838;2022-11-03T00:43:35;6.60;92.20
32293;DHT22;43233;48.608;8.838;2022-11-03T00:46:02;6.60;99.90
32293;DHT22;43233;48.608;8.838;2022-11-03T00:48:30;6.60;89.70
32293;DHT22;43233;48.608;8.838;2022-11-03T00:53:29;6.60;87.30
32293;DHT22;43233;48.608;8.838;2022-11-03T00:55:55;6.60;86.80
32293;DHT22;43233;48.608;8.838;2022-11-03T00:58:20;6.60;87.10
32293;DHT22;43233;48.608;8.838;2022-11-03T01:00:46;6.60;87.70
32293;DHT22;43233;48.608;8.838;2022-11-03T01:03:12;6.60;87.20
32293;DHT22;43233;48.608;8.838;2022-11-03T01:05:42;6.60;92.30
32293;DHT22;43233;48.608;8.838;2022-11-03T01:08:36;6.50;89.20
32293;DHT22;43233;48.608;8.838;2022-11-03T01:11:09;6.20;90.10
32293;DHT22;43233;48.608;8.838;2022-11-03T01:13:54;6.10;90.50
32293;DHT22;43233;48.608;8.838;2022-11-03T01:16:20;6.10;89.20
32293;DHT22;43233;48.608;8.838;2022-11-03T01:18:46;6.10;89.70
32293;DHT22;43233;48.608;8.838;2022-11-03T01:21:12;6.10;89.10
32293;DHT22;43233;48.608;8.838;2022-11-03T01:23:38;6.10;88.80
32293;DHT22;43233;48.608;8.838;2022-11-03T01:26:04;6.10;88.60
32293;DHT22;43233;48.608;8.838;2022-11-03T01:28:33;6.10;88.30
32293;DHT22;43233;48.608;8.838;2022-11-03T01:31:13;6.20;87.70
32293;DHT22;43233;48.608;8.838;2022-11-03T01:33:39;6.20;86.90
32293;DHT22;43233;48.608;8.838;2022-11-03T01:36:06;6.20;86.50
32293;DHT22;43233;48.608;8.838;2022-11-03T01:38:33;6.20;86.60
32293;DHT22;43233;48.608;8.838;2022-11-03T01:41:00;6.20;89.60
32293;DHT22;43233;48.608;8.838;2022-11-03T01:43:26;6.20;88.00
32293;DHT22;43233;48.608;8.838;2022-11-03T01:46:26;6.20;88.40
32293;DHT22;43233;48.608;8.838;2022-11-03T01:51:28;6.20;87.00
32293;DHT22;43233;48.608;8.838;2022-11-03T01:53:56;6.20;86.70
32293;DHT22;43233;48.608;8.838;2022-11-03T01:56:23;6.20;87.20
32293;DHT22;43233;48.608;8.838;2022-11-03T01:58:50;6.10;88.50
32293;DHT22;43233;48.608;8.838;2022-11-03T02:01:17;6.10;88.00
32293;DHT22;43233;48.608;8.838;2022-11-03T02:04:02;6.10;87.30
32293;DHT22;43233;48.608;8.838;2022-11-03T02:06:30;6.00;86.90
32293;DHT22;43233;48.608;8.838;2022-11-03T02:09:01;5.90;87.50
32293;DHT22;43233;48.608;8.838;2022-11-03T02:11:28;5.90;88.20
32293;DHT22;43233;48.608;8.838;2022-11-03T02:14:13;5.90;87.40
32293;DHT22;43233;48.608;8.838;2022-11-03T02:16:42;5.90;86.80
32293;DHT22;43233;48.608;8.838;2022-11-03T02:19:38;5.80;86.40
32293;DHT22;43233;48.608;8.838;2022-11-03T02:22:47;5.80;86.20
32293;DHT22;43233;48.608;8.838;2022-11-03T02:28:06;5.80;85.80
32293;DHT22;43233;48.608;8.838;2022-11-03T02:33:42;5.70;87.00
32293;DHT22;43233;48.608;8.838;2022-11-03T02:38:29;5.80;86.70
32293;DHT22;43233;48.608;8.838;2022-11-03T02:41:00;5.80;86.70
32293;DHT22;43233;48.608;8.838;2022-11-03T02:43:28;5.80;87.50
32293;DHT22;43233;48.608;8.838;2022-11-03T02:45:54;5.90;88.30
32293;DHT22;43233;48.608;8.838;2022-11-03T02:48:20;5.90;88.50
32293;DHT22;43233;48.608;8.838;2022-11-03T02:50:46;5.90;88.00
32293;DHT22;43233;48.608;8.838;2022-11-03T02:53:14;5.90;87.70
32293;DHT22;43233;48.608;8.838;2022-11-03T02:55:50;5.90;88.20
32293;DHT22;43233;48.608;8.838;2022-11-03T02:58:23;5.80;86.70
32293;DHT22;43233;48.608;8.838;2022-11-03T03:01:08;5.80;86.20
32293;DHT22;43233;48.608;8.838;2022-11-03T03:03:55;5.70;85.60
32293;DHT22;43233;48.608;8.838;2022-11-03T03:06:25;5.70;86.10
32293;DHT22;43233;48.608;8.838;2022-11-03T03:08:56;5.60;87.10
32293;DHT22;43233;48.608;8.838;2022-11-03T03:11:23;5.50;87.90
32293;DHT22;43233;48.608;8.838;2022-11-03T03:14:27;5.30;88.90
32293;DHT22;43233;48.608;8.838;2022-11-03T03:17:00;5.20;88.50
32293;DHT22;43233;48.608;8.838;2022-11-03T03:22:21;5.20;87.40
32293;DHT22;43233;48.608;8.838;2022-11-03T03:24:52;5.20;88.00
32293;DHT22;43233;48.608;8.838;2022-11-03T03:27:23;5.20;88.30
32293;DHT22;43233;48.608;8.838;2022-11-03T03:29:56;5.20;88.80
32293;DHT22;43233;48.608;8.838;2022-11-03T03:32:24;5.20;88.60
32293;DHT22;43233;48.608;8.838;2022-11-03T03:34:52;5.20;88.50
32293;DHT22;43233;48.608;8.838;2022-11-03T03:37:19;5.20;88.20
32293;DHT22;43233;48.608;8.838;2022-11-03T03:39:51;5.20;88.10
32293;DHT22;43233;48.608;8.838;2022-11-03T03:42:19;5.20;87.90
32293;DHT22;43233;48.608;8.838;2022-11-03T03:44:45;5.20;87.90
32293;DHT22;43233;48.608;8.838;2022-11-03T03:47:25;5.30;87.60
32293;DHT22;43233;48.608;8.838;2022-11-03T03:49:52;5.30;87.20
32293;DHT22;43233;48.608;8.838;2022-11-03T03:52:18;5.30;87.70
32293;DHT22;43233;48.608;8.838;2022-11-03T03:54:44;5.30;87.20
32293;DHT22;43233;48.608;8.838;2022-11-03T03:57:14;5.40;89.50
32293;DHT22;43233;48.608;8.838;2022-11-03T03:59:41;5.40;91.00
32293;DHT22;43233;48.608;8.838;2022-11-03T04:02:07;5.50;91.40
32293;DHT22;43233;48.608;8.838;2022-11-03T04:04:33;5.60;92.80
32293;DHT22;43233;48.608;8.838;2022-11-03T04:06:58;5.70;92.70
32293;DHT22;43233;48.608;8.838;2022-11-03T04:09:43;5.70;92.60
32293;DHT22;43233;48.608;8.838;2022-11-03T04:12:08;5.70;92.90
32293;DHT22;43233;48.608;8.838;2022-11-03T04:14:53;5.70;93.20
32293;DHT22;43233;48.608;8.838;2022-11-03T04:17:42;5.60;93.10
32293;DHT22;43233;48.608;8.838;2022-11-03T04:20:27;5.60;93.10
32293;DHT22;43233;48.608;8.838;2022-11-03T04:23:11;5.50;92.50
32293;DHT22;43233;48.608;8.838;2022-11-03T04:25:37;5.50;92.60
32293;DHT22;43233;48.608;8.838;2022-11-03T04:28:13;5.50;92.60
32293;DHT22;43233;48.608;8.838;2022-11-03T04:30:39;5.50;92.90
32293;DHT22;43233;48.608;8.838;2022-11-03T04:33:14;5.40;93.40
32293;DHT22;43233;48.608;8.838;2022-11-03T04:35:41;5.40;93.60
32293;DHT22;43233;48.608;8.838;2022-11-03T04:40:43;5.30;94.40
32293;DHT22;43233;48.608;8.838;2022-11-03T04:43:14;5.30;94.30
32293;DHT22;43233;48.608;8.838;2022-11-03T04:45:42;5.20;93.40
32293;DHT22;43233;48.608;8.838;2022-11-03T04:50:41;5.20;92.50
32293;DHT22;43233;48.608;8.838;2022-11-03T04:53:15;5.10;91.80
32293;DHT22;43233;48.608;8.838;2022-11-03T04:55:41;5.10;91.80
32293;DHT22;43233;48.608;8.838;2022-11-03T04:58:28;5.10;92.80
32293;DHT22;43233;48.608;8.838;2022-11-03T05:00:58;5.10;92.20
32293;DHT22;43233;48.608;8.838;2022-11-03T05:03:34;5.10;91.50
32293;DHT22;43233;48.608;8.838;2022-11-03T05:06:18;5.10;90.70
32293;DHT22;43233;48.608;8.838;2022-11-03T05:08:47;5.10;90.00
32293;DHT22;43233;48.608;8.838;2022-11-03T05:11:25;5.00;89.60
32293;DHT22;43233;48.608;8.838;2022-11-03T05:13:58;5.00;89.60
32293;DHT22;43233;48.608;8.838;2022-11-03T05:16:24;5.00;89.40
32293;DHT22;43233;48.608;8.838;2022-11-03T05:18:50;5.00;89.50
32293;DHT22;43233;48.608;8.838;2022-11-03T05:21:21;5.00;89.60
32293;DHT22;43233;48.608;8.838;2022-11-03T05:23:56;5.00;90.00
32293;DHT22;43233;48.608;8.838;2022-11-03T05:26:36;5.00;89.80
32293;DHT22;43233;48.608;8.838;2022-11-03T05:31:35;5.00;88.70
32293;DHT22;43233;48.608;8.838;2022-11-03T05:34:12;5.00;88.80
32293;DHT22;43233;48.608;8.838;2022-11-03T05:36:41;5.00;89.20
32293;DHT22;43233;48.608;8.838;2022-11-03T05:41:47;5.00;95.50
32293;DHT22;43233;48.608;8.838;2022-11-03T05:44:45;5.00;96.90
32293;DHT22;43233;48.608;8.838;2022-11-03T05:47:23;5.10;97.20
32293;DHT22;43233;48.608;8.838;2022-11-03T05:49:51;5.10;95.30
32293;DHT22;43233;48.608;8.838;2022-11-03T05:52:24;5.10;93.70
32293;DHT22;43233;48.608;8.838;2022-11-03T05:54:51;5.10;92.80
32293;DHT22;43233;48.608;8.838;2022-11-03T05:57:18;5.10;91.90
32293;DHT22;43233;48.608;8.838;2022-11-03T05:59:45;5.10;91.00
32293;DHT22;43233;48.608;8.838;2022-11-03T06:02:35;5.10;90.10
32293;DHT22;43233;48.608;8.838;2022-11-03T06:05:24;5.10;89.70
32293;DHT22;43233;48.608;8.838;2022-11-03T06:07:51;5.10;90.20
32293;DHT22;43233;48.608;8.838;2022-11-03T06:12:46;5.10;91.00
32293;DHT22;43233;48.608;8.838;2022-11-03T06:15:23;5.10;91.20
32293;DHT22;43233;48.608;8.838;2022-11-03T06:17:51;5.10;91.80
32293;DHT22;43233;48.608;8.838;2022-11-03T06:20:20;5.00;92.10
32293;DHT22;43233;48.608;8.838;2022-11-03T06:22:47;5.00;90.80
32293;DHT22;43233;48.608;8.838;2022-11-03T06:25:30;5.00;90.00
32293;DHT22;43233;48.608;8.838;2022-11-03T06:28:02;5.00;90.50
32293;DHT22;43233;48.608;8.838;2022-11-03T06:30:31;5.00;91.10
32293;DHT22;43233;48.608;8.838;2022-11-03T06:33:05;5.00;91.00
32293;DHT22;43233;48.608;8.838;2022-11-03T06:35:31;5.00;91.00
32293;DHT22;43233;48.608;8.838;2022-11-03T06:37:57;5.00;91.50
32293;DHT22;43233;48.608;8.838;2022-11-03T06:40:33;5.10;92.10
32293;DHT22;43233;48.608;8.838;2022-11-03T06:43:04;5.10;92.50
32293;DHT22;43233;48.608;8.838;2022-11-03T06:45:33;5.20;92.50
32293;DHT22;43233;48.608;8.838;2022-11-03T06:47:59;5.30;92.70
32293;DHT22;43233;48.608;8.838;2022-11-03T06:50:32;5.30;92.70
32293;DHT22;43233;48.608;8.838;2022-11-03T06:53:00;5.30;92.60
32293;DHT22;43233;48.608;8.838;2022-11-03T06:55:29;5.40;92.70
32293;DHT22;43233;48.608;8.838;2022-11-03T06:58:06;5.50;92.70
32293;DHT22;43233;48.608;8.838;2022-11-03T07:00:38;5.50;92.50
32293;DHT22;43233;48.608;8.838;2022-11-03T07:03:21;5.40;92.90
32293;DHT22;43233;48.608;8.838;2022-11-03T07:05:47;5.40;93.40
32293;DHT22;43233;48.608;8.838;2022-11-03T07:08:35;5.40;93.80
32293;DHT22;43233;48.608;8.838;2022-11-03T07:11:21;5.50;94.40
32293;DHT22;43233;48.608;8.838;2022-11-03T07:13:52;5.50;94.70
32293;DHT22;43233;48.608;8.838;2022-11-03T07:18:51;5.50;94.30
32293;DHT22;43233;48.608;8.838;2022-11-03T07:21:35;5.60;94.10
32293;DHT22;43233;48.608;8.838;2022-11-03T07:24:11;5.60;93.80
32293;DHT22;43233;48.608;8.838;2022-11-03T07:26:37;5.70;93.10
32293;DHT22;43233;48.608;8.838;2022-11-03T07:29:03;5.70;93.40
32293;DHT22;43233;48.608;8.838;2022-11-03T07:31:30;5.80;93.40
32293;DHT22;43233;48.608;8.838;2022-11-03T07:33:57;5.80;93.50
32293;DHT22;43233;48.608;8.838;2022-11-03T07:36:25;5.90;93.70
32293;DHT22;43233;48.608;8.838;2022-11-03T07:38:54;6.00;93.90
32293;DHT22;43233;48.608;8.838;2022-11-03T07:41:27;6.00;94.00
32293;DHT22;43233;48.608;8.838;2022-11-03T07:43:55;6.10;94.10
32293;DHT22;43233;48.608;8.838;2022-11-03T07:46:22;6.20;93.80
32293;DHT22;43233;48.608;8.838;2022-11-03T07:48:50;6.30;93.70
32293;DHT22;43233;48.608;8.838;2022-11-03T07:53:48;6.50;92.70
32293;DHT22;43233;48.608;8.838;2022-11-03T07:56:22;6.50;92.10
32293;DHT22;43233;48.608;8.838;2022-11-03T08:01:36;6.50;91.50
32293;DHT22;43233;48.608;8.838;2022-11-03T08:04:04;6.60;91.60
32293;DHT22;43233;48.608;8.838;2022-11-03T08:06:31;6.70;91.20
32293;DHT22;43233;48.608;8.838;2022-11-03T08:08:57;6.80;89.80
32293;DHT22;43233;48.608;8.838;2022-11-03T08:11:23;6.80;89.50
32293;DHT22;43233;48.608;8.838;2022-11-03T08:13:51;6.80;89.00
32293;DHT22;43233;48.608;8.838;2022-11-03T08:16:18;6.90;88.60
32293;DHT22;43233;48.608;8.838;2022-11-03T08:18:43;6.80;86.90
32293;DHT22;43233;48.608;8.838;2022-11-03T08:21:09;6.70;87.80
32293;DHT22;43233;48.608;8.838;2022-11-03T08:23:35;6.70;88.10
32293;DHT22;43233;48.608;8.838;2022-11-03T08:26:01;6.80;88.30
32293;DHT22;43233;48.608;8.838;2022-11-03T08:28:27;6.90;87.50
32293;DHT22;43233;48.608;8.838;2022-11-03T08:30:53;6.90;87.70
32293;DHT22;43233;48.608;8.838;2022-11-03T08:33:18;7.00;87.40
32293;DHT22;43233;48.608;8.838;2022-11-03T08:35:44;7.00;87.70
32293;DHT22;43233;48.608;8.838;2022-11-03T08:38:09;7.00;87.60
32293;DHT22;43233;48.608;8.838;2022-11-03T08:40:35;7.10;87.60
32293;DHT22;43233;48.608;8.838;2022-11-03T08:43:00;7.00;86.90
32293;DHT22;43233;48.608;8.838;2022-11-03T08:45:28;7.10;87.50
32293;DHT22;43233;48.608;8.838;2022-11-03T08:47:54;7.20;87.00
32293;DHT22;43233;48.608;8.838;2022-11-03T08:50:20;7.30;86.30
32293;DHT22;43233;48.608;8.838;2022-11-03T08:52:46;7.40;86.30
32293;DHT22;43233;48.608;8.838;2022-11-03T08:55:12;7.50;86.50
32293;DHT22;43233;48.608;8.838;2022-11-03T08:57:38;7.60;87.10
32293;DHT22;43233;48.608;8.838;2022-11-03T09:00:04;7.60;87.60
32293;DHT22;43233;48.608;8.838;2022-11-03T09:02:30;7.70;88.40
32293;DHT22;43233;48.608;8.838;2022-11-03T09:04:56;7.80;88.70
32293;DHT22;43233;48.608;8.838;2022-11-03T09:07:22;7.90;89.20
32293;DHT22;43233;48.608;8.838;2022-11-03T09:09:47;8.00;89.50
32293;DHT22;43233;48.608;8.838;2022-11-03T09:12:13;8.30;90.20
32293;DHT22;43233;48.608;8.838;2022-11-03T09:14:39;8.40;89.40
32293;DHT22;43233;48.608;8.838;2022-11-03T09:17:04;8.50;89.30
32293;DHT22;43233;48.608;8.838;2022-11-03T09:19:30;8.60;89.30
32293;DHT22;43233;48.608;8.838;2022-11-03T09:21:55;8.70;89.40
32293;DHT22;43233;48.608;8.838;2022-11-03T09:24:21;8.70;88.80
32293;DHT22;43233;48.608;8.838;2022-11-03T09:26:47;8.80;89.00
32293;DHT22;43233;48.608;8.838;2022-11-03T09:29:12;8.90;88.70
32293;DHT22;43233;48.608;8.838;2022-11-03T09:31:38;9.00;87.60
32293;DHT22;43233;48.608;8.838;2022-11-03T09:34:03;9.10;87.50
32293;DHT22;43233;48.608;8.838;2022-11-03T09:36:29;9.20;86.70
32293;DHT22;43233;48.608;8.838;2022-11-03T09:38:55;9.20;84.80
32293;DHT22;43233;48.608;8.838;2022-11-03T09:41:21;9.20;83.40
32293;DHT22;43233;48.608;8.838;2022-11-03T09:43:47;9.20;83.60
32293;DHT22;43233;48.608;8.838;2022-11-03T09:46:15;9.20;84.40
32293;DHT22;43233;48.608;8.838;2022-11-03T09:48:41;9.10;84.70
32293;DHT22;43233;48.608;8.838;2022-11-03T09:51:09;9.10;85.50
32293;DHT22;43233;48.608;8.838;2022-11-03T09:53:36;9.10;85.80
32293;DHT22;43233;48.608;8.838;2022-11-03T09:56:02;9.10;85.70
32293;DHT22;43233;48.608;8.838;2022-11-03T09:58:27;9.10;85.90
32293;DHT22;43233;48.608;8.838;2022-11-03T10:00:53;9.20;85.70
32293;DHT22;43233;48.608;8.838;2022-11-03T10:03:18;9.20;85.50
32293;DHT22;43233;48.608;8.838;2022-11-03T10:05:46;9.20;84.80
32293;DHT22;43233;48.608;8.838;2022-11-03T10:08:33;9.10;84.40
32293;DHT22;43233;48.608;8.838;2022-11-03T10:11:00;9.10;85.50
32293;DHT22;43233;48.608;8.838;2022-11-03T10:15:54;9.20;84.60
32293;DHT22;43233;48.608;8.838;2022-11-03T10:18:20;9.20;85.50
32293;DHT22;43233;48.608;8.838;2022-11-03T10:20:46;9.30;86.20
32293;DHT22;43233;48.608;8.838;2022-11-03T10:23:11;9.40;86.20
32293;DHT22;43233;48.608;8.838;2022-11-03T10:25:42;9.50;85.20
32293;DHT22;43233;48.608;8.838;2022-11-03T10:28:20;9.60;84.00
32293;DHT22;43233;48.608;8.838;2022-11-03T10:38:39;10.00;83.50
32293;DHT22;43233;48.608;8.838;2022-11-03T10:43:40;10.30;84.10
32293;DHT22;43233;48.608;8.838;2022-11-03T10:46:15;10.50;84.20
32293;DHT22;43233;48.608;8.838;2022-11-03T10:48:42;10.70;84.40
32293;DHT22;43233;48.608;8.838;2022-11-03T10:51:12;10.80;83.70
32293;DHT22;43233;48.608;8.838;2022-11-03T10:53:38;10.70;84.20
32293;DHT22;43233;48.608;8.838;2022-11-03T10:56:04;10.80;84.70
32293;DHT22;43233;48.608;8.838;2022-11-03T10:58:30;10.90;84.60
32293;DHT22;43233;48.608;8.838;2022-11-03T11:00:57;10.90;84.20
32293;DHT22;43233;48.608;8.838;2022-11-03T11:03:22;11.00;84.80
32293;DHT22;43233;48.608;8.838;2022-11-03T11:05:48;11.10;84.10
32293;DHT22;43233;48.608;8.838;2022-11-03T11:08:20;11.20;83.40
32293;DHT22;43233;48.608;8.838;2022-11-03T11:10:47;11.30;83.70
32293;DHT22;43233;48.608;8.838;2022-11-03T11:36:38;11.40;85.20
32293;DHT22;43233;48.608;8.838;2022-11-03T11:52:50;11.40;85.50
32293;DHT22;43233;48.608;8.838;2022-11-03T11:57:49;11.40;86.20
32293;DHT22;43233;48.608;8.838;2022-11-03T12:00:21;11.40;87.00
32293;DHT22;43233;48.608;8.838;2022-11-03T12:02:50;11.40;85.80
32293;DHT22;43233;48.608;8.838;2022-11-03T12:05:25;11.40;86.10
32293;DHT22;43233;48.608;8.838;2022-11-03T12:07:53;11.40;85.60
32293;DHT22;43233;48.608;8.838;2022-11-03T12:10:28;11.40;85.50
32293;DHT22;43233;48.608;8.838;2022-11-03T12:12:55;11.50;85.70
32293;DHT22;43233;48.608;8.838;2022-11-03T12:16:20;11.50;85.70
32293;DHT22;43233;48.608;8.838;2022-11-03T12:18:39;11.50;85.50
32293;DHT22;43233;48.608;8.838;2022-11-03T12:21:10;11.40;85.80
32293;DHT22;43233;48.608;8.838;2022-11-03T12:23:43;11.40;86.20
32293;DHT22;43233;48.608;8.838;2022-11-03T12:28:45;11.40;86.50
32293;DHT22;43233;48.608;8.838;2022-11-03T12:31:10;11.50;86.50
32293;DHT22;43233;48.608;8.838;2022-11-03T12:33:36;11.40;86.40
32293;DHT22;43233;48.608;8.838;2022-11-03T12:36:02;11.40;86.70
32293;DHT22;43233;48.608;8.838;2022-11-03T12:38:28;11.40;87.00
32293;DHT22;43233;48.608;8.838;2022-11-03T12:40:53;11.40;87.30
32293;DHT22;43233;48.608;8.838;2022-11-03T12:43:19;11.40;87.60
32293;DHT22;43233;48.608;8.838;2022-11-03T12:45:45;11.50;87.40
32293;DHT22;43233;48.608;8.838;2022-11-03T12:48:10;11.50;87.60
32293;DHT22;43233;48.608;8.838;2022-11-03T12:50:36;11.60;87.40
32293;DHT22;43233;48.608;8.838;2022-11-03T12:53:04;11.60;86.90
32293;DHT22;43233;48.608;8.838;2022-11-03T12:55:31;11.50;86.50
32293;DHT22;43233;48.608;8.838;2022-11-03T12:57:57;11.60;86.50
32293;DHT22;43233;48.608;8.838;2022-11-03T13:00:22;11.50;86.10
32293;DHT22;43233;48.608;8.838;2022-11-03T13:02:48;11.50;86.40
32293;DHT22;43233;48.608;8.838;2022-11-03T13:05:13;11.50;86.20
32293;DHT22;43233;48.608;8.838;2022-11-03T13:07:41;11.50;86.20
32293;DHT22;43233;48.608;8.838;2022-11-03T13:10:06;11.50;86.70
32293;DHT22;43233;48.608;8.838;2022-11-03T13:12:32;11.50;86.70
32293;DHT22;43233;48.608;8.838;2022-11-03T13:15:02;11.50;86.60
32293;DHT22;43233;48.608;8.838;2022-11-03T13:17:28;11.50;87.00
32293;DHT22;43233;48.608;8.838;2022-11-03T13:19:53;11.50;86.20
32293;DHT22;43233;48.608;8.838;2022-11-03T13:22:19;11.60;85.60
32293;DHT22;43233;48.608;8.838;2022-11-03T13:24:45;11.60;85.00
32293;DHT22;43233;48.608;8.838;2022-11-03T13:27:11;11.60;85.20
32293;DHT22;43233;48.608;8.838;2022-11-03T13:29:37;11.50;85.50
32293;DHT22;43233;48.608;8.838;2022-11-03T13:32:03;11.50;85.90
32293;DHT22;43233;48.608;8.838;2022-11-03T13:34:29;11.60;85.70
32293;DHT22;43233;48.608;8.838;2022-11-03T13:36:55;11.60;85.70
32293;DHT22;43233;48.608;8.838;2022-11-03T13:39:21;11.60;85.90
32293;DHT22;43233;48.608;8.838;2022-11-03T13:41:46;11.60;85.90
32293;DHT22;43233;48.608;8.838;2022-11-03T13:44:13;11.60;86.00
32293;DHT22;43233;48.608;8.838;2022-11-03T13:46:39;11.50;86.20
32293;DHT22;43233;48.608;8.838;2022-11-03T13:49:04;11.60;86.10
32293;DHT22;43233;48.608;8.838;2022-11-03T13:51:30;11.60;86.00
32293;DHT22;43233;48.608;8.838;2022-11-03T13:53:56;11.60;86.30
32293;DHT22;43233;48.608;8.838;2022-11-03T13:56:22;11.60;86.10
32293;DHT22;43233;48.608;8.838;2022-11-03T13:58:48;11.50;86.00
32293;DHT22;43233;48.608;8.838;2022-11-03T14:01:13;11.60;86.10
32293;DHT22;43233;48.608;8.838;2022-11-03T14:03:39;11.60;86.00
32293;DHT22;43233;48.608;8.838;2022-11-03T14:06:05;11.60;86.00
32293;DHT22;43233;48.608;8.838;2022-11-03T14:08:30;11.60;86.20
32293;DHT22;43233;48.608;8.838;2022-11-03T14:10:56;11.60;86.00
32293;DHT22;43233;48.608;8.838;2022-11-03T14:13:22;11.50;86.20
32293;DHT22;43233;48.608;8.838;2022-11-03T14:15:47;11.50;86.50
32293;DHT22;43233;48.608;8.838;2022-11-03T14:18:13;11.50;86.70
32293;DHT22;43233;48.608;8.838;2022-11-03T14:20:39;11.50;87.20
32293;DHT22;43233;48.608;8.838;2022-11-03T14:23:04;11.50;86.30
32293;DHT22;43233;48.608;8.838;2022-11-03T14:25:30;11.50;86.50
32293;DHT22;43233;48.608;8.838;2022-11-03T14:27:55;11.50;86.50
32293;DHT22;43233;48.608;8.838;2022-11-03T14:30:21;11.50;86.50
32293;DHT22;43233;48.608;8.838;2022-11-03T14:32:46;11.50;86.60
32293;DHT22;43233;48.608;8.838;2022-11-03T14:35:12;11.50;86.60
32293;DHT22;43233;48.608;8.838;2022-11-03T14:37:38;11.50;86.20
32293;DHT22;43233;48.608;8.838;2022-11-03T14:40:05;11.50;86.30
32293;DHT22;43233;48.608;8.838;2022-11-03T14:42:30;11.50;86.20
32293;DHT22;43233;48.608;8.838;2022-11-03T14:44:56;11.50;86.10
32293;DHT22;43233;48.608;8.838;2022-11-03T14:47:21;11.50;86.00
32293;DHT22;43233;48.608;8.838;2022-11-03T14:49:48;11.50;85.80
32293;DHT22;43233;48.608;8.838;2022-11-03T14:52:14;11.50;85.20
32293;DHT22;43233;48.608;8.838;2022-11-03T14:54:40;11.50;85.20
32293;DHT22;43233;48.608;8.838;2022-11-03T14:57:06;11.50;85.60
32293;DHT22;43233;48.608;8.838;2022-11-03T14:59:33;11.40;85.50
32293;DHT22;43233;48.608;8.838;2022-11-03T15:01:58;11.40;86.50
32293;DHT22;43233;48.608;8.838;2022-11-03T15:04:25;11.40;85.30
32293;DHT22;43233;48.608;8.838;2022-11-03T15:06:50;11.40;85.50
32293;DHT22;43233;48.608;8.838;2022-11-03T15:09:16;11.50;85.30
32293;DHT22;43233;48.608;8.838;2022-11-03T15:11:42;11.40;85.10
32293;DHT22;43233;48.608;8.838;2022-11-03T15:14:09;11.40;85.40
32293;DHT22;43233;48.608;8.838;2022-11-03T15:16:34;11.50;85.50
32293;DHT22;43233;48.608;8.838;2022-11-03T15:19:04;11.40;85.40
32293;DHT22;43233;48.608;8.838;2022-11-03T15:21:30;11.40;85.60
32293;DHT22;43233;48.608;8.838;2022-11-03T15:23:56;11.50;85.80
32293;DHT22;43233;48.608;8.838;2022-11-03T15:26:22;11.40;85.60
32293;DHT22;43233;48.608;8.838;2022-11-03T15:28:48;11.40;85.30
32293;DHT22;43233;48.608;8.838;2022-11-03T15:31:13;11.40;85.10
32293;DHT22;43233;48.608;8.838;2022-11-03T15:33:39;11.40;85.00
32293;DHT22;43233;48.608;8.838;2022-11-03T15:36:05;11.40;85.20
32293;DHT22;43233;48.608;8.838;2022-11-03T15:38:32;11.30;86.00
32293;DHT22;43233;48.608;8.838;2022-11-03T15:40:57;11.20;86.40
32293;DHT22;43233;48.608;8.838;2022-11-03T15:43:42;11.10;87.10
32293;DHT22;43233;48.608;8.838;2022-11-03T15:46:08;11.10;87.40
32293;DHT22;43233;48.608;8.838;2022-11-03T15:48:35;11.10;87.60
32293;DHT22;43233;48.608;8.838;2022-11-03T15:51:00;11.10;87.80
32293;DHT22;43233;48.608;8.838;2022-11-03T15:53:26;10.90;88.70
32293;DHT22;43233;48.608;8.838;2022-11-03T15:55:51;10.90;89.50
32293;DHT22;43233;48.608;8.838;2022-11-03T15:58:17;10.80;89.40
32293;DHT22;43233;48.608;8.838;2022-11-03T16:00:42;10.90;89.10
32293;DHT22;43233;48.608;8.838;2022-11-03T16:03:08;10.90;88.00
32293;DHT22;43233;48.608;8.838;2022-11-03T16:05:34;11.00;87.00
32293;DHT22;43233;48.608;8.838;2022-11-03T16:07:59;11.00;86.30
32293;DHT22;43233;48.608;8.838;2022-11-03T16:10:25;11.00;86.00
32293;DHT22;43233;48.608;8.838;2022-11-03T16:12:51;11.00;85.60
32293;DHT22;43233;48.608;8.838;2022-11-03T16:15:16;10.90;85.50
32293;DHT22;43233;48.608;8.838;2022-11-03T16:17:42;10.90;86.00
32293;DHT22;43233;48.608;8.838;2022-11-03T16:20:08;10.90;85.30
32293;DHT22;43233;48.608;8.838;2022-11-03T16:22:34;10.90;85.20
32293;DHT22;43233;48.608;8.838;2022-11-03T16:25:00;11.00;85.00
32293;DHT22;43233;48.608;8.838;2022-11-03T16:27:26;11.00;84.10
32293;DHT22;43233;48.608;8.838;2022-11-03T16:29:51;11.00;84.10
32293;DHT22;43233;48.608;8.838;2022-11-03T16:32:21;11.00;84.00
32293;DHT22;43233;48.608;8.838;2022-11-03T16:34:47;11.00;84.00
32293;DHT22;43233;48.608;8.838;2022-11-03T16:37:13;11.10;84.00
32293;DHT22;43233;48.608;8.838;2022-11-03T16:39:39;11.10;83.80
32293;DHT22;43233;48.608;8.838;2022-11-03T16:42:05;11.10;83.10
32293;DHT22;43233;48.608;8.838;2022-11-03T16:44:31;11.10;82.60
32293;DHT22;43233;48.608;8.838;2022-11-03T16:46:56;11.10;82.80
32293;DHT22;43233;48.608;8.838;2022-11-03T16:49:22;11.00;82.90
32293;DHT22;43233;48.608;8.838;2022-11-03T16:51:48;11.00;82.70
32293;DHT22;43233;48.608;8.838;2022-11-03T16:54:13;10.90;82.90
32293;DHT22;43233;48.608;8.838;2022-11-03T16:56:39;10.80;82.20
32293;DHT22;43233;48.608;8.838;2022-11-03T16:59:04;10.80;82.00
32293;DHT22;43233;48.608;8.838;2022-11-03T17:01:30;10.90;81.50
32293;DHT22;43233;48.608;8.838;2022-11-03T17:03:56;11.00;79.60
32293;DHT22;43233;48.608;8.838;2022-11-03T17:06:21;11.10;79.20
32293;DHT22;43233;48.608;8.838;2022-11-03T17:08:47;11.10;78.00
32293;DHT22;43233;48.608;8.838;2022-11-03T17:11:13;11.20;77.70
32293;DHT22;43233;48.608;8.838;2022-11-03T17:13:38;11.20;75.80
32293;DHT22;43233;48.608;8.838;2022-11-03T17:16:04;11.30;75.70
32293;DHT22;43233;48.608;8.838;2022-11-03T17:18:29;11.30;75.20
32293;DHT22;43233;48.608;8.838;2022-11-03T17:20:55;11.30;75.00
32293;DHT22;43233;48.608;8.838;2022-11-03T17:23:21;11.30;74.90
32293;DHT22;43233;48.608;8.838;2022-11-03T17:25:46;11.30;73.90